sensor_id;sensor_type;location;lat;lon;timestamp;P1;durP1;ratioP1;P2;durP2;ratioP2
9124;SDS011;4597;48.730;9.114;2024-03-02T00:01:58;7.63;;;5.93;;
9124;SDS011;4597;48.730;9.114;2024-03-02T00:04:23;9.37;;;5.97;;
9124;SDS011;4597;48.730;9.114;2024-03-02T00:06:51;7.00;;;5.30;;
9124;SDS011;4597;48.730;9.114;2024-03-02T00:09:19;8.90;;;5.53;;
9124;SDS011;4597;48.730;9.114;2024-03-02T00:11:45;6.20;;;5.43;;
9124;SDS011;4597;48.730;9.114;2024-03-02T00:14:11;7.90;;;5.80;;
9124;SDS011;4597;48.730;9.114;2024-03-02T00:16:37;6.63;;;5.20;;
9124;SDS011;4597;48.730;9.114;2024-03-02T00:19:02;8.63;;;5.70;;
9124;SDS011;4597;48.730;9.114;2024-03-02T00:21:30;7.40;;;5.40;;
9124;SDS011;4597;48.730;9.114;2024-03-02T00:23:56;9.87;;;6.07;;
9124;SDS011;4597;48.730;9.114;2024-03-02T00:26:22;7.83;;;6.03;;
9124;SDS011;4597;48.730;9.114;2024-03-02T00:28:47;8.43;;;6.00;;
9124;SDS011;4597;48.730;9.114;2024-03-02T00:31:15;8.10;;;5.77;;
9124;SDS011;4597;48.730;9.114;2024-03-02T00:36:11;10.90;;;7.47;;
9124;SDS011;4597;48.730;9.114;2024-03-02T00:38:45;9.97;;;6.33;;
9124;SDS011;4597;48.730;9.114;2024-03-02T00:41:20;9.70;;;6.87;;
9124;SDS011;4597;48.730;9.114;2024-03-02T00:44:01;7.60;;;6.07;;
9124;SDS011;4597;48.730;9.114;2024-03-02T00:49:04;8.97;;;5.60;;
9124;SDS011;4597;48.730;9.114;2024-03-02T00:51:31;10.57;;;6.53;;
9124;SDS011;4597;48.730;9.114;2024-03-02T00:53:58;10.73;;;6.57;;
9124;SDS011;4597;48.730;9.114;2024-03-02T00:56:26;7.07;;;5.87;;
9124;SDS011;4597;48.730;9.114;2024-03-02T00:58:52;7.00;;;5.67;;
9124;SDS011;4597;48.730;9.114;2024-03-02T01:01:18;5.27;;;4.83;;
9124;SDS011;4597;48.730;9.114;2024-03-02T01:03:44;6.03;;;4.30;;
9124;SDS011;4597;48.730;9.114;2024-03-02T01:06:10;4.93;;;3.93;;
9124;SDS011;4597;48.730;9.114;2024-03-02T01:08:36;4.77;;;4.13;;
9124;SDS011;4597;48.730;9.114;2024-03-02T01:11:02;6.23;;;4.37;;
9124;SDS011;4597;48.730;9.114;2024-03-02T01:13:28;6.87;;;4.40;;
9124;SDS011;4597;48.730;9.114;2024-03-02T01:15:54;5.03;;;3.73;;
9124;SDS011;4597;48.730;9.114;2024-03-02T01:18:20;5.80;;;4.20;;
9124;SDS011;4597;48.730;9.114;2024-03-02T01:20:47;6.17;;;4.37;;
9124;SDS011;4597;48.730;9.114;2024-03-02T01:23:12;6.30;;;4.20;;
9124;SDS011;4597;48.730;9.114;2024-03-02T01:25:38;5.93;;;4.37;;
9124;SDS011;4597;48.730;9.114;2024-03-02T01:28:04;4.93;;;4.23;;
9124;SDS011;4597;48.730;9.114;2024-03-02T01:30:29;6.80;;;3.87;;
9124;SDS011;4597;48.730;9.114;2024-03-02T01:32:55;4.30;;;3.90;;
9124;SDS011;4597;48.730;9.114;2024-03-02T01:35:20;4.83;;;3.93;;
9124;SDS011;4597;48.730;9.114;2024-03-02T01:37:46;4.80;;;3.97;;
9124;SDS011;4597;48.730;9.114;2024-03-02T01:40:11;5.57;;;4.53;;
9124;SDS011;4597;48.730;9.114;2024-03-02T01:42:37;6.00;;;4.57;;
9124;SDS011;4597;48.730;9.114;2024-03-02T01:45:04;7.17;;;5.07;;
9124;SDS011;4597;48.730;9.114;2024-03-02T01:47:30;7.57;;;5.83;;
9124;SDS011;4597;48.730;9.114;2024-03-02T01:49:57;5.40;;;4.73;;
9124;SDS011;4597;48.730;9.114;2024-03-02T01:52:23;6.07;;;4.93;;
9124;SDS011;4597;48.730;9.114;2024-03-02T01:54:48;6.23;;;4.83;;
9124;SDS011;4597;48.730;9.114;2024-03-02T01:57:14;5.67;;;4.33;;
9124;SDS011;4597;48.730;9.114;2024-03-02T01:59:40;4.73;;;4.03;;
9124;SDS011;4597;48.730;9.114;2024-03-02T02:02:06;7.07;;;4.20;;
9124;SDS011;4597;48.730;9.114;2024-03-02T02:04:32;5.50;;;3.90;;
9124;SDS011;4597;48.730;9.114;2024-03-02T02:06:57;5.73;;;3.87;;
9124;SDS011;4597;48.730;9.114;2024-03-02T02:09:23;4.70;;;4.03;;
9124;SDS011;4597;48.730;9.114;2024-03-02T02:11:50;4.83;;;4.13;;
9124;SDS011;4597;48.730;9.114;2024-03-02T02:14:16;7.13;;;4.40;;
9124;SDS011;4597;48.730;9.114;2024-03-02T02:16:41;5.20;;;4.33;;
9124;SDS011;4597;48.730;9.114;2024-03-02T02:19:07;7.63;;;4.93;;
9124;SDS011;4597;48.730;9.114;2024-03-02T02:21:33;5.67;;;4.63;;
9124;SDS011;4597;48.730;9.114;2024-03-02T02:23:58;6.27;;;4.37;;
9124;SDS011;4597;48.730;9.114;2024-03-02T02:26:24;9.50;;;5.27;;
9124;SDS011;4597;48.730;9.114;2024-03-02T02:28:49;7.67;;;5.37;;
9124;SDS011;4597;48.730;9.114;2024-03-02T02:31:15;8.17;;;4.40;;
9124;SDS011;4597;48.730;9.114;2024-03-02T02:33:41;5.23;;;4.40;;
9124;SDS011;4597;48.730;9.114;2024-03-02T02:36:07;7.20;;;4.63;;
9124;SDS011;4597;48.730;9.114;2024-03-02T02:38:35;7.17;;;4.47;;
9124;SDS011;4597;48.730;9.114;2024-03-02T02:41:07;5.87;;;4.50;;
9124;SDS011;4597;48.730;9.114;2024-03-02T02:43:33;5.37;;;4.13;;
9124;SDS011;4597;48.730;9.114;2024-03-02T02:45:59;7.50;;;5.43;;
9124;SDS011;4597;48.730;9.114;2024-03-02T02:48:24;6.70;;;5.40;;
9124;SDS011;4597;48.730;9.114;2024-03-02T02:50:50;5.00;;;4.50;;
9124;SDS011;4597;48.730;9.114;2024-03-02T02:53:16;8.53;;;6.13;;
9124;SDS011;4597;48.730;9.114;2024-03-02T02:55:41;7.40;;;5.90;;
9124;SDS011;4597;48.730;9.114;2024-03-02T02:58:08;6.90;;;4.93;;
9124;SDS011;4597;48.730;9.114;2024-03-02T03:00:34;7.57;;;5.53;;
9124;SDS011;4597;48.730;9.114;2024-03-02T03:02:59;6.10;;;5.03;;
9124;SDS011;4597;48.730;9.114;2024-03-02T03:05:25;8.13;;;5.30;;
9124;SDS011;4597;48.730;9.114;2024-03-02T03:07:50;6.40;;;5.07;;
9124;SDS011;4597;48.730;9.114;2024-03-02T03:10:16;7.90;;;5.40;;
9124;SDS011;4597;48.730;9.114;2024-03-02T03:12:42;7.97;;;5.80;;
9124;SDS011;4597;48.730;9.114;2024-03-02T03:15:08;5.13;;;4.33;;
9124;SDS011;4597;48.730;9.114;2024-03-02T03:17:35;7.43;;;4.80;;
9124;SDS011;4597;48.730;9.114;2024-03-02T03:20:02;7.23;;;5.53;;
9124;SDS011;4597;48.730;9.114;2024-03-02T03:22:29;7.37;;;4.90;;
9124;SDS011;4597;48.730;9.114;2024-03-02T03:24:55;6.93;;;5.13;;
9124;SDS011;4597;48.730;9.114;2024-03-02T03:27:21;6.33;;;4.97;;
9124;SDS011;4597;48.730;9.114;2024-03-02T03:29:46;5.70;;;4.63;;
9124;SDS011;4597;48.730;9.114;2024-03-02T03:32:12;6.53;;;4.87;;
9124;SDS011;4597;48.730;9.114;2024-03-02T03:34:38;5.97;;;5.13;;
9124;SDS011;4597;48.730;9.114;2024-03-02T03:37:03;5.90;;;4.60;;
9124;SDS011;4597;48.730;9.114;2024-03-02T03:39:29;7.23;;;4.80;;
9124;SDS011;4597;48.730;9.114;2024-03-02T03:41:54;7.07;;;4.40;;
9124;SDS011;4597;48.730;9.114;2024-03-02T03:44:20;6.40;;;5.40;;
9124;SDS011;4597;48.730;9.114;2024-03-02T03:46:46;6.20;;;4.37;;
9124;SDS011;4597;48.730;9.114;2024-03-02T03:49:11;7.17;;;5.50;;
9124;SDS011;4597;48.730;9.114;2024-03-02T03:51:36;8.80;;;5.70;;
9124;SDS011;4597;48.730;9.114;2024-03-02T03:54:02;7.10;;;5.17;;
9124;SDS011;4597;48.730;9.114;2024-03-02T03:56:27;6.03;;;5.03;;
9124;SDS011;4597;48.730;9.114;2024-03-02T03:58:53;7.30;;;5.20;;
9124;SDS011;4597;48.730;9.114;2024-03-02T04:01:18;5.77;;;5.13;;
9124;SDS011;4597;48.730;9.114;2024-03-02T04:03:44;6.37;;;5.30;;
9124;SDS011;4597;48.730;9.114;2024-03-02T04:06:10;6.80;;;5.50;;
9124;SDS011;4597;48.730;9.114;2024-03-02T04:08:35;6.03;;;5.03;;
9124;SDS011;4597;48.730;9.114;2024-03-02T04:11:01;8.30;;;5.80;;
9124;SDS011;4597;48.730;9.114;2024-03-02T04:13:27;6.57;;;4.70;;
9124;SDS011;4597;48.730;9.114;2024-03-02T04:15:53;6.47;;;4.83;;
9124;SDS011;4597;48.730;9.114;2024-03-02T04:18:18;7.10;;;5.70;;
9124;SDS011;4597;48.730;9.114;2024-03-02T04:20:44;6.97;;;4.97;;
9124;SDS011;4597;48.730;9.114;2024-03-02T04:23:09;5.77;;;5.10;;
9124;SDS011;4597;48.730;9.114;2024-03-02T04:25:35;7.87;;;5.63;;
9124;SDS011;4597;48.730;9.114;2024-03-02T04:28:01;6.80;;;5.00;;
9124;SDS011;4597;48.730;9.114;2024-03-02T04:30:26;6.53;;;5.13;;
9124;SDS011;4597;48.730;9.114;2024-03-02T04:32:52;8.07;;;5.10;;
9124;SDS011;4597;48.730;9.114;2024-03-02T04:35:17;8.20;;;4.50;;
9124;SDS011;4597;48.730;9.114;2024-03-02T04:37:43;7.40;;;5.23;;
9124;SDS011;4597;48.730;9.114;2024-03-02T04:40:08;9.27;;;5.27;;
9124;SDS011;4597;48.730;9.114;2024-03-02T04:42:35;5.83;;;4.77;;
9124;SDS011;4597;48.730;9.114;2024-03-02T04:45:01;9.70;;;6.07;;
9124;SDS011;4597;48.730;9.114;2024-03-02T04:47:27;7.53;;;5.07;;
9124;SDS011;4597;48.730;9.114;2024-03-02T04:49:53;8.17;;;5.27;;
9124;SDS011;4597;48.730;9.114;2024-03-02T04:52:18;7.00;;;5.57;;
9124;SDS011;4597;48.730;9.114;2024-03-02T04:54:44;8.97;;;5.63;;
9124;SDS011;4597;48.730;9.114;2024-03-02T04:57:27;8.00;;;5.27;;
9124;SDS011;4597;48.730;9.114;2024-03-02T04:59:53;9.83;;;5.93;;
9124;SDS011;4597;48.730;9.114;2024-03-02T05:02:18;8.60;;;5.93;;
9124;SDS011;4597;48.730;9.114;2024-03-02T05:04:44;7.10;;;5.33;;
9124;SDS011;4597;48.730;9.114;2024-03-02T05:07:09;7.73;;;5.77;;
9124;SDS011;4597;48.730;9.114;2024-03-02T05:09:35;9.20;;;5.87;;
9124;SDS011;4597;48.730;9.114;2024-03-02T05:12:01;8.67;;;5.93;;
9124;SDS011;4597;48.730;9.114;2024-03-02T05:14:54;8.37;;;5.50;;
9124;SDS011;4597;48.730;9.114;2024-03-02T05:17:20;6.90;;;4.73;;
9124;SDS011;4597;48.730;9.114;2024-03-02T05:19:45;8.87;;;5.80;;
9124;SDS011;4597;48.730;9.114;2024-03-02T05:22:11;8.30;;;5.80;;
9124;SDS011;4597;48.730;9.114;2024-03-02T05:24:36;8.00;;;5.83;;
9124;SDS011;4597;48.730;9.114;2024-03-02T05:27:02;11.10;;;6.57;;
9124;SDS011;4597;48.730;9.114;2024-03-02T05:29:27;8.27;;;5.63;;
9124;SDS011;4597;48.730;9.114;2024-03-02T05:31:53;8.40;;;5.70;;
9124;SDS011;4597;48.730;9.114;2024-03-02T05:34:18;8.83;;;5.90;;
9124;SDS011;4597;48.730;9.114;2024-03-02T05:36:44;7.63;;;5.50;;
9124;SDS011;4597;48.730;9.114;2024-03-02T05:39:09;7.67;;;5.53;;
9124;SDS011;4597;48.730;9.114;2024-03-02T05:41:35;8.37;;;6.20;;
9124;SDS011;4597;48.730;9.114;2024-03-02T05:44:01;10.07;;;6.13;;
9124;SDS011;4597;48.730;9.114;2024-03-02T05:46:26;8.10;;;5.63;;
9124;SDS011;4597;48.730;9.114;2024-03-02T05:48:52;9.57;;;5.80;;
9124;SDS011;4597;48.730;9.114;2024-03-02T05:51:18;8.27;;;5.77;;
9124;SDS011;4597;48.730;9.114;2024-03-02T05:53:44;7.73;;;6.03;;
9124;SDS011;4597;48.730;9.114;2024-03-02T05:56:09;7.60;;;5.50;;
9124;SDS011;4597;48.730;9.114;2024-03-02T05:58:34;7.93;;;5.53;;
9124;SDS011;4597;48.730;9.114;2024-03-02T06:01:19;8.17;;;5.63;;
9124;SDS011;4597;48.730;9.114;2024-03-02T06:03:44;7.87;;;5.30;;
9124;SDS011;4597;48.730;9.114;2024-03-02T06:06:10;7.50;;;5.57;;
9124;SDS011;4597;48.730;9.114;2024-03-02T06:08:36;7.27;;;5.30;;
9124;SDS011;4597;48.730;9.114;2024-03-02T06:11:01;8.53;;;4.80;;
9124;SDS011;4597;48.730;9.114;2024-03-02T06:13:27;7.83;;;5.50;;
9124;SDS011;4597;48.730;9.114;2024-03-02T06:15:52;8.17;;;5.23;;
9124;SDS011;4597;48.730;9.114;2024-03-02T06:18:18;8.57;;;5.10;;
9124;SDS011;4597;48.730;9.114;2024-03-02T06:20:43;6.63;;;4.73;;
9124;SDS011;4597;48.730;9.114;2024-03-02T06:23:09;8.77;;;5.40;;
9124;SDS011;4597;48.730;9.114;2024-03-02T06:25:35;7.73;;;5.30;;
9124;SDS011;4597;48.730;9.114;2024-03-02T06:28:00;7.60;;;4.93;;
9124;SDS011;4597;48.730;9.114;2024-03-02T06:30:26;7.17;;;5.10;;
9124;SDS011;4597;48.730;9.114;2024-03-02T06:32:51;7.63;;;5.13;;
9124;SDS011;4597;48.730;9.114;2024-03-02T06:35:17;6.63;;;5.13;;
9124;SDS011;4597;48.730;9.114;2024-03-02T06:37:42;8.00;;;5.93;;
9124;SDS011;4597;48.730;9.114;2024-03-02T06:40:08;8.13;;;5.67;;
9124;SDS011;4597;48.730;9.114;2024-03-02T06:42:34;8.27;;;5.70;;
9124;SDS011;4597;48.730;9.114;2024-03-02T06:45:00;10.33;;;5.97;;
9124;SDS011;4597;48.730;9.114;2024-03-02T06:47:26;8.87;;;5.97;;
9124;SDS011;4597;48.730;9.114;2024-03-02T06:49:51;8.50;;;5.80;;
9124;SDS011;4597;48.730;9.114;2024-03-02T06:52:18;6.93;;;5.43;;
9124;SDS011;4597;48.730;9.114;2024-03-02T06:54:43;6.50;;;5.30;;
9124;SDS011;4597;48.730;9.114;2024-03-02T06:57:09;7.90;;;5.20;;
9124;SDS011;4597;48.730;9.114;2024-03-02T06:59:35;6.00;;;4.53;;
9124;SDS011;4597;48.730;9.114;2024-03-02T07:02:00;6.60;;;5.13;;
9124;SDS011;4597;48.730;9.114;2024-03-02T07:04:26;7.47;;;5.13;;
9124;SDS011;4597;48.730;9.114;2024-03-02T07:06:52;7.90;;;4.97;;
9124;SDS011;4597;48.730;9.114;2024-03-02T07:09:17;7.37;;;4.63;;
9124;SDS011;4597;48.730;9.114;2024-03-02T07:11:43;7.10;;;5.47;;
9124;SDS011;4597;48.730;9.114;2024-03-02T07:14:08;8.83;;;5.77;;
9124;SDS011;4597;48.730;9.114;2024-03-02T07:16:36;7.13;;;5.43;;
9124;SDS011;4597;48.730;9.114;2024-03-02T07:19:03;10.80;;;6.90;;
9124;SDS011;4597;48.730;9.114;2024-03-02T07:21:28;8.30;;;6.23;;
9124;SDS011;4597;48.730;9.114;2024-03-02T07:23:54;8.53;;;5.63;;
9124;SDS011;4597;48.730;9.114;2024-03-02T07:26:20;6.13;;;4.47;;
9124;SDS011;4597;48.730;9.114;2024-03-02T07:28:46;11.07;;;6.67;;
9124;SDS011;4597;48.730;9.114;2024-03-02T07:31:12;9.80;;;7.07;;
9124;SDS011;4597;48.730;9.114;2024-03-02T07:33:38;7.20;;;5.93;;
9124;SDS011;4597;48.730;9.114;2024-03-02T07:36:04;6.90;;;5.43;;
9124;SDS011;4597;48.730;9.114;2024-03-02T07:38:29;8.33;;;5.20;;
9124;SDS011;4597;48.730;9.114;2024-03-02T07:40:56;6.77;;;5.73;;
9124;SDS011;4597;48.730;9.114;2024-03-02T07:43:22;7.90;;;5.50;;
9124;SDS011;4597;48.730;9.114;2024-03-02T07:45:47;7.27;;;5.33;;
9124;SDS011;4597;48.730;9.114;2024-03-02T07:48:13;8.30;;;5.90;;
9124;SDS011;4597;48.730;9.114;2024-03-02T07:50:39;8.53;;;6.00;;
9124;SDS011;4597;48.730;9.114;2024-03-02T07:53:05;9.23;;;6.03;;
9124;SDS011;4597;48.730;9.114;2024-03-02T07:55:31;8.17;;;5.90;;
9124;SDS011;4597;48.730;9.114;2024-03-02T07:57:56;6.83;;;5.07;;
9124;SDS011;4597;48.730;9.114;2024-03-02T08:00:22;7.53;;;5.30;;
9124;SDS011;4597;48.730;9.114;2024-03-02T08:02:49;7.93;;;4.90;;
9124;SDS011;4597;48.730;9.114;2024-03-02T08:05:16;5.67;;;4.03;;
9124;SDS011;4597;48.730;9.114;2024-03-02T08:07:44;6.40;;;4.60;;
9124;SDS011;4597;48.730;9.114;2024-03-02T08:10:10;6.30;;;5.33;;
9124;SDS011;4597;48.730;9.114;2024-03-02T08:12:35;5.97;;;4.83;;
9124;SDS011;4597;48.730;9.114;2024-03-02T08:15:01;7.80;;;4.90;;
9124;SDS011;4597;48.730;9.114;2024-03-02T08:17:26;6.53;;;4.57;;
9124;SDS011;4597;48.730;9.114;2024-03-02T08:19:52;6.17;;;4.43;;
9124;SDS011;4597;48.730;9.114;2024-03-02T08:22:18;6.37;;;4.47;;
9124;SDS011;4597;48.730;9.114;2024-03-02T08:24:44;5.57;;;4.23;;
9124;SDS011;4597;48.730;9.114;2024-03-02T08:27:10;7.03;;;4.27;;
9124;SDS011;4597;48.730;9.114;2024-03-02T08:29:35;6.17;;;4.00;;
9124;SDS011;4597;48.730;9.114;2024-03-02T08:32:01;6.07;;;4.57;;
9124;SDS011;4597;48.730;9.114;2024-03-02T08:34:27;6.37;;;4.57;;
9124;SDS011;4597;48.730;9.114;2024-03-02T08:36:53;6.93;;;4.77;;
9124;SDS011;4597;48.730;9.114;2024-03-02T08:39:18;6.93;;;4.93;;
9124;SDS011;4597;48.730;9.114;2024-03-02T08:41:44;4.90;;;4.37;;
9124;SDS011;4597;48.730;9.114;2024-03-02T08:44:10;4.77;;;4.27;;
9124;SDS011;4597;48.730;9.114;2024-03-02T08:46:37;6.07;;;4.07;;
9124;SDS011;4597;48.730;9.114;2024-03-02T08:49:03;7.93;;;4.93;;
9124;SDS011;4597;48.730;9.114;2024-03-02T08:51:29;4.47;;;3.93;;
9124;SDS011;4597;48.730;9.114;2024-03-02T08:53:55;5.87;;;4.40;;
9124;SDS011;4597;48.730;9.114;2024-03-02T08:56:21;6.17;;;4.20;;
9124;SDS011;4597;48.730;9.114;2024-03-02T08:58:48;5.57;;;4.53;;
9124;SDS011;4597;48.730;9.114;2024-03-02T09:01:14;6.03;;;4.47;;
9124;SDS011;4597;48.730;9.114;2024-03-02T09:03:40;5.07;;;4.57;;
9124;SDS011;4597;48.730;9.114;2024-03-02T09:06:09;5.93;;;4.53;;
9124;SDS011;4597;48.730;9.114;2024-03-02T09:08:35;5.33;;;4.37;;
9124;SDS011;4597;48.730;9.114;2024-03-02T09:11:01;6.60;;;4.97;;
9124;SDS011;4597;48.730;9.114;2024-03-02T09:13:31;5.87;;;4.50;;
9124;SDS011;4597;48.730;9.114;2024-03-02T09:15:57;7.00;;;4.57;;
9124;SDS011;4597;48.730;9.114;2024-03-02T09:18:23;6.80;;;4.67;;
9124;SDS011;4597;48.730;9.114;2024-03-02T09:20:48;6.17;;;4.10;;
9124;SDS011;4597;48.730;9.114;2024-03-02T09:23:14;6.93;;;4.60;;
9124;SDS011;4597;48.730;9.114;2024-03-02T09:25:39;4.70;;;4.17;;
9124;SDS011;4597;48.730;9.114;2024-03-02T09:28:05;7.23;;;4.20;;
9124;SDS011;4597;48.730;9.114;2024-03-02T09:30:32;8.13;;;4.30;;
9124;SDS011;4597;48.730;9.114;2024-03-02T09:32:57;5.80;;;4.37;;
9124;SDS011;4597;48.730;9.114;2024-03-02T09:35:23;4.93;;;3.67;;
9124;SDS011;4597;48.730;9.114;2024-03-02T09:37:48;4.83;;;4.30;;
9124;SDS011;4597;48.730;9.114;2024-03-02T09:40:14;4.43;;;3.87;;
9124;SDS011;4597;48.730;9.114;2024-03-02T09:42:40;4.47;;;3.63;;
9124;SDS011;4597;48.730;9.114;2024-03-02T09:45:06;6.87;;;3.97;;
9124;SDS011;4597;48.730;9.114;2024-03-02T09:47:32;3.73;;;3.30;;
9124;SDS011;4597;48.730;9.114;2024-03-02T09:49:58;3.53;;;3.23;;
9124;SDS011;4597;48.730;9.114;2024-03-02T09:52:24;3.67;;;3.23;;
9124;SDS011;4597;48.730;9.114;2024-03-02T09:54:49;4.50;;;3.93;;
9124;SDS011;4597;48.730;9.114;2024-03-02T09:57:15;4.23;;;3.30;;
9124;SDS011;4597;48.730;9.114;2024-03-02T09:59:40;4.50;;;3.63;;
9124;SDS011;4597;48.730;9.114;2024-03-02T10:02:06;3.97;;;3.33;;
9124;SDS011;4597;48.730;9.114;2024-03-02T10:04:32;3.47;;;3.17;;
9124;SDS011;4597;48.730;9.114;2024-03-02T10:07:09;5.83;;;3.30;;
9124;SDS011;4597;48.730;9.114;2024-03-02T10:09:39;3.30;;;3.00;;
9124;SDS011;4597;48.730;9.114;2024-03-02T10:12:05;3.00;;;2.50;;
9124;SDS011;4597;48.730;9.114;2024-03-02T10:14:32;3.10;;;2.80;;
9124;SDS011;4597;48.730;9.114;2024-03-02T10:17:04;2.93;;;2.63;;
9124;SDS011;4597;48.730;9.114;2024-03-02T10:19:31;3.97;;;3.27;;
9124;SDS011;4597;48.730;9.114;2024-03-02T10:21:59;3.13;;;2.53;;
9124;SDS011;4597;48.730;9.114;2024-03-02T10:24:26;2.50;;;2.30;;
9124;SDS011;4597;48.730;9.114;2024-03-02T10:26:52;3.60;;;2.50;;
9124;SDS011;4597;48.730;9.114;2024-03-02T10:29:17;2.50;;;2.30;;
9124;SDS011;4597;48.730;9.114;2024-03-02T10:31:44;2.10;;;2.00;;
9124;SDS011;4597;48.730;9.114;2024-03-02T10:34:11;3.93;;;2.47;;
9124;SDS011;4597;48.730;9.114;2024-03-02T10:36:37;2.93;;;2.63;;
9124;SDS011;4597;48.730;9.114;2024-03-02T10:39:06;2.30;;;2.00;;
9124;SDS011;4597;48.730;9.114;2024-03-02T10:41:33;2.60;;;2.40;;
9124;SDS011;4597;48.730;9.114;2024-03-02T10:44:03;2.83;;;2.20;;
9124;SDS011;4597;48.730;9.114;2024-03-02T10:46:30;2.50;;;2.30;;
9124;SDS011;4597;48.730;9.114;2024-03-02T10:48:58;2.50;;;2.30;;
9124;SDS011;4597;48.730;9.114;2024-03-02T10:51:28;2.57;;;2.37;;
9124;SDS011;4597;48.730;9.114;2024-03-02T10:53:57;2.33;;;2.17;;
9124;SDS011;4597;48.730;9.114;2024-03-02T10:56:27;2.43;;;2.20;;
9124;SDS011;4597;48.730;9.114;2024-03-02T11:01:57;2.53;;;2.37;;
9124;SDS011;4597;48.730;9.114;2024-03-02T11:04:27;2.77;;;2.50;;
9124;SDS011;4597;48.730;9.114;2024-03-02T11:06:56;3.13;;;2.20;;
9124;SDS011;4597;48.730;9.114;2024-03-02T11:09:30;3.60;;;2.50;;
9124;SDS011;4597;48.730;9.114;2024-03-02T11:12:03;2.57;;;2.37;;
9124;SDS011;4597;48.730;9.114;2024-03-02T11:14:49;2.80;;;2.60;;
9124;SDS011;4597;48.730;9.114;2024-03-02T11:17:17;2.83;;;2.63;;
9124;SDS011;4597;48.730;9.114;2024-03-02T11:19:43;2.80;;;2.60;;
9124;SDS011;4597;48.730;9.114;2024-03-02T11:22:13;2.83;;;2.47;;
9124;SDS011;4597;48.730;9.114;2024-03-02T11:24:41;2.67;;;2.43;;
9124;SDS011;4597;48.730;9.114;2024-03-02T11:27:58;2.37;;;2.17;;
9124;SDS011;4597;48.730;9.114;2024-03-02T11:30:48;1.80;;;1.70;;
9124;SDS011;4597;48.730;9.114;2024-03-02T11:35:41;1.70;;;1.60;;
9124;SDS011;4597;48.730;9.114;2024-03-02T11:38:09;2.87;;;2.03;;
9124;SDS011;4597;48.730;9.114;2024-03-02T11:40:34;2.60;;;2.20;;
9124;SDS011;4597;48.730;9.114;2024-03-02T11:43:00;2.00;;;1.90;;
9124;SDS011;4597;48.730;9.114;2024-03-02T11:45:26;2.20;;;2.10;;
9124;SDS011;4597;48.730;9.114;2024-03-02T11:47:57;2.30;;;2.20;;
9124;SDS011;4597;48.730;9.114;2024-03-02T11:53:11;2.60;;;2.40;;
9124;SDS011;4597;48.730;9.114;2024-03-02T11:55:38;3.13;;;2.27;;
9124;SDS011;4597;48.730;9.114;2024-03-02T11:58:14;3.23;;;3.00;;
9124;SDS011;4597;48.730;9.114;2024-03-02T12:00:53;2.20;;;2.10;;
9124;SDS011;4597;48.730;9.114;2024-03-02T12:03:20;2.03;;;1.93;;
9124;SDS011;4597;48.730;9.114;2024-03-02T12:05:54;2.10;;;1.50;;
9124;SDS011;4597;48.730;9.114;2024-03-02T12:08:19;1.83;;;1.73;;
9124;SDS011;4597;48.730;9.114;2024-03-02T12:10:59;1.87;;;1.67;;
9124;SDS011;4597;48.730;9.114;2024-03-02T12:13:25;1.70;;;1.60;;
9124;SDS011;4597;48.730;9.114;2024-03-02T12:15:53;1.70;;;1.60;;
9124;SDS011;4597;48.730;9.114;2024-03-02T12:18:22;1.60;;;1.50;;
9124;SDS011;4597;48.730;9.114;2024-03-02T12:20:48;1.77;;;1.40;;
9124;SDS011;4597;48.730;9.114;2024-03-02T12:23:17;1.53;;;1.43;;
9124;SDS011;4597;48.730;9.114;2024-03-02T12:25:43;1.50;;;1.40;;
9124;SDS011;4597;48.730;9.114;2024-03-02T12:28:09;1.50;;;1.40;;
9124;SDS011;4597;48.730;9.114;2024-03-02T12:30:35;1.20;;;1.20;;
9124;SDS011;4597;48.730;9.114;2024-03-02T12:33:01;1.40;;;1.30;;
9124;SDS011;4597;48.730;9.114;2024-03-02T12:35:26;1.63;;;1.53;;
9124;SDS011;4597;48.730;9.114;2024-03-02T12:37:52;1.73;;;1.20;;
9124;SDS011;4597;48.730;9.114;2024-03-02T12:40:19;1.23;;;1.20;;
9124;SDS011;4597;48.730;9.114;2024-03-02T12:42:47;1.17;;;1.17;;
9124;SDS011;4597;48.730;9.114;2024-03-02T12:45:13;1.13;;;1.13;;
9124;SDS011;4597;48.730;9.114;2024-03-02T12:47:40;1.27;;;1.20;;
9124;SDS011;4597;48.730;9.114;2024-03-02T12:50:06;0.93;;;0.93;;
9124;SDS011;4597;48.730;9.114;2024-03-02T12:52:33;0.90;;;0.90;;
9124;SDS011;4597;48.730;9.114;2024-03-02T12:55:00;1.10;;;1.10;;
9124;SDS011;4597;48.730;9.114;2024-03-02T12:57:28;1.20;;;1.20;;
9124;SDS011;4597;48.730;9.114;2024-03-02T13:00:00;1.10;;;1.10;;
9124;SDS011;4597;48.730;9.114;2024-03-02T13:02:33;1.00;;;1.00;;
9124;SDS011;4597;48.730;9.114;2024-03-02T13:04:59;1.20;;;1.10;;
9124;SDS011;4597;48.730;9.114;2024-03-02T13:07:25;0.83;;;0.83;;
9124;SDS011;4597;48.730;9.114;2024-03-02T13:09:51;0.90;;;0.90;;
9124;SDS011;4597;48.730;9.114;2024-03-02T13:12:20;0.70;;;0.70;;
9124;SDS011;4597;48.730;9.114;2024-03-02T13:14:49;0.70;;;0.70;;
9124;SDS011;4597;48.730;9.114;2024-03-02T13:17:18;0.70;;;0.70;;
9124;SDS011;4597;48.730;9.114;2024-03-02T13:19:57;0.90;;;0.90;;
9124;SDS011;4597;48.730;9.114;2024-03-02T13:22:24;0.80;;;0.80;;
9124;SDS011;4597;48.730;9.114;2024-03-02T13:24:51;0.70;;;0.70;;
9124;SDS011;4597;48.730;9.114;2024-03-02T13:27:18;0.90;;;0.90;;
9124;SDS011;4597;48.730;9.114;2024-03-02T13:29:47;0.70;;;0.70;;
9124;SDS011;4597;48.730;9.114;2024-03-02T13:32:13;0.80;;;0.80;;
9124;SDS011;4597;48.730;9.114;2024-03-02T13:34:39;0.70;;;0.70;;
9124;SDS011;4597;48.730;9.114;2024-03-02T13:37:05;0.80;;;0.80;;
9124;SDS011;4597;48.730;9.114;2024-03-02T13:39:31;0.70;;;0.70;;
9124;SDS011;4597;48.730;9.114;2024-03-02T13:41:59;0.50;;;0.50;;
9124;SDS011;4597;48.730;9.114;2024-03-02T13:44:32;0.50;;;0.50;;
9124;SDS011;4597;48.730;9.114;2024-03-02T13:46:59;0.60;;;0.60;;
9124;SDS011;4597;48.730;9.114;2024-03-02T13:49:25;0.60;;;0.60;;
9124;SDS011;4597;48.730;9.114;2024-03-02T13:51:58;0.60;;;0.60;;
9124;SDS011;4597;48.730;9.114;2024-03-02T13:54:25;0.60;;;0.60;;
9124;SDS011;4597;48.730;9.114;2024-03-02T13:56:51;0.80;;;0.80;;
9124;SDS011;4597;48.730;9.114;2024-03-02T13:59:17;0.63;;;0.63;;
9124;SDS011;4597;48.730;9.114;2024-03-02T14:01:43;0.73;;;0.73;;
9124;SDS011;4597;48.730;9.114;2024-03-02T14:04:09;0.70;;;0.70;;
9124;SDS011;4597;48.730;9.114;2024-03-02T14:06:35;0.57;;;0.57;;
9124;SDS011;4597;48.730;9.114;2024-03-02T14:09:00;0.60;;;0.60;;
9124;SDS011;4597;48.730;9.114;2024-03-02T14:11:26;0.60;;;0.60;;
9124;SDS011;4597;48.730;9.114;2024-03-02T14:13:51;0.63;;;0.63;;
9124;SDS011;4597;48.730;9.114;2024-03-02T14:16:19;0.83;;;0.83;;
9124;SDS011;4597;48.730;9.114;2024-03-02T14:18:45;0.70;;;0.70;;
9124;SDS011;4597;48.730;9.114;2024-03-02T14:21:11;0.70;;;0.70;;
9124;SDS011;4597;48.730;9.114;2024-03-02T14:23:36;0.70;;;0.70;;
9124;SDS011;4597;48.730;9.114;2024-03-02T14:26:02;0.70;;;0.70;;
9124;SDS011;4597;48.730;9.114;2024-03-02T14:28:28;1.00;;;1.00;;
9124;SDS011;4597;48.730;9.114;2024-03-02T14:30:53;0.90;;;0.90;;
9124;SDS011;4597;48.730;9.114;2024-03-02T14:33:19;0.90;;;0.90;;
9124;SDS011;4597;48.730;9.114;2024-03-02T14:35:45;0.83;;;0.83;;
9124;SDS011;4597;48.730;9.114;2024-03-02T14:38:11;0.80;;;0.80;;
9124;SDS011;4597;48.730;9.114;2024-03-02T14:40:37;0.90;;;0.90;;
9124;SDS011;4597;48.730;9.114;2024-03-02T14:43:03;0.80;;;0.80;;
9124;SDS011;4597;48.730;9.114;2024-03-02T14:45:29;0.97;;;0.90;;
9124;SDS011;4597;48.730;9.114;2024-03-02T14:47:54;0.90;;;0.90;;
9124;SDS011;4597;48.730;9.114;2024-03-02T14:50:20;0.80;;;0.80;;
9124;SDS011;4597;48.730;9.114;2024-03-02T14:52:46;0.97;;;0.97;;
9124;SDS011;4597;48.730;9.114;2024-03-02T14:55:12;1.20;;;1.10;;
9124;SDS011;4597;48.730;9.114;2024-03-02T14:57:37;0.90;;;0.90;;
9124;SDS011;4597;48.730;9.114;2024-03-02T15:00:03;1.07;;;1.07;;
9124;SDS011;4597;48.730;9.114;2024-03-02T15:02:32;0.90;;;0.90;;
9124;SDS011;4597;48.730;9.114;2024-03-02T15:04:58;0.80;;;0.80;;
9124;SDS011;4597;48.730;9.114;2024-03-02T15:07:24;0.90;;;0.90;;
9124;SDS011;4597;48.730;9.114;2024-03-02T15:09:49;0.90;;;0.90;;
9124;SDS011;4597;48.730;9.114;2024-03-02T15:12:15;0.88;;;0.88;;
9124;SDS011;4597;48.730;9.114;2024-03-02T15:14:42;0.80;;;0.80;;
9124;SDS011;4597;48.730;9.114;2024-03-02T15:17:12;1.00;;;1.00;;
9124;SDS011;4597;48.730;9.114;2024-03-02T15:19:41;0.82;;;0.82;;
9124;SDS011;4597;48.730;9.114;2024-03-02T15:22:10;1.00;;;1.00;;
9124;SDS011;4597;48.730;9.114;2024-03-02T15:24:36;0.90;;;0.90;;
9124;SDS011;4597;48.730;9.114;2024-03-02T15:27:02;1.00;;;1.00;;